createdAt,value
2023-01-05T00:01:53.466Z,1.20
2023-01-05T00:04:20.634Z,1.20
2023-01-05T00:06:48.335Z,1.20
2023-01-05T00:09:18.789Z,1.20
2023-01-05T00:12:05.009Z,1.20
2023-01-05T00:14:52.365Z,1.10
2023-01-05T00:17:41.902Z,1.10
2023-01-05T00:20:39.518Z,1.10
2023-01-05T00:23:08.151Z,1.20
2023-01-05T00:25:40.538Z,1.10
2023-01-05T00:28:09.052Z,1.10
2023-01-05T00:30:44.287Z,1.20
2023-01-05T00:33:14.742Z,1.10
2023-01-05T00:35:43.750Z,1.10
2023-01-05T00:38:11.844Z,1.10
2023-01-05T00:40:39.742Z,1.10
2023-01-05T00:43:09.343Z,1.10
2023-01-05T00:45:36.955Z,1.20
2023-01-05T00:48:04.985Z,1.20
2023-01-05T00:50:31.983Z,1.20
2023-01-05T00:52:59.687Z,1.20
2023-01-05T00:55:27.394Z,1.10
2023-01-05T00:57:56.495Z,1.20
2023-01-05T01:00:26.994Z,1.10
2023-01-05T01:02:54.680Z,1.10
2023-01-05T01:05:22.390Z,1.10
2023-01-05T01:07:50.121Z,1.10
2023-01-05T01:10:17.990Z,1.10
2023-01-05T01:12:45.702Z,1.10
2023-01-05T01:15:13.494Z,1.10
2023-01-05T01:17:42.889Z,1.10
2023-01-05T01:20:11.092Z,1.10
2023-01-05T01:22:38.771Z,1.10
2023-01-05T01:25:06.206Z,1.10
2023-01-05T01:27:34.168Z,1.10
2023-01-05T01:30:02.107Z,1.10
2023-01-05T01:32:29.771Z,1.00
2023-01-05T01:34:59.848Z,1.10
2023-01-05T01:37:27.473Z,1.00
2023-01-05T01:39:55.089Z,1.00
2023-01-05T01:42:23.343Z,1.00
2023-01-05T01:44:56.172Z,1.00
2023-01-05T01:47:41.939Z,1.00
2023-01-05T01:50:17.123Z,1.00
2023-01-05T01:52:47.268Z,0.90
2023-01-05T01:55:15.983Z,1.00
2023-01-05T01:57:47.244Z,1.00
2023-01-05T02:00:15.320Z,0.90
2023-01-05T02:02:44.154Z,0.90
2023-01-05T02:05:12.673Z,0.90
2023-01-05T02:07:45.721Z,0.90
2023-01-05T02:10:18.879Z,0.90
2023-01-05T02:13:12.425Z,0.90
2023-01-05T02:15:51.422Z,0.90
2023-01-05T02:18:45.043Z,0.90
2023-01-05T02:21:41.068Z,0.90
2023-01-05T02:24:26.715Z,0.90
2023-01-05T02:27:02.857Z,0.90
2023-01-05T02:30:04.573Z,0.90
2023-01-05T02:32:58.584Z,0.90
2023-01-05T02:35:34.607Z,0.90
2023-01-05T02:38:26.070Z,0.90
2023-01-05T02:41:00.618Z,0.90
2023-01-05T02:43:29.339Z,0.90
2023-01-05T02:45:59.986Z,0.90
2023-01-05T02:48:28.708Z,0.90
2023-01-05T02:51:14.761Z,0.80
2023-01-05T02:53:54.124Z,0.90
2023-01-05T02:56:26.842Z,0.90
2023-01-05T02:59:10.487Z,0.80
2023-01-05T03:01:49.158Z,0.80
2023-01-05T03:04:23.483Z,0.80
2023-01-05T03:06:58.881Z,0.80
2023-01-05T03:09:30.560Z,0.80
2023-01-05T03:12:29.177Z,0.80
2023-01-05T03:15:20.998Z,0.80
2023-01-05T03:17:55.614Z,0.80
2023-01-05T03:20:28.094Z,0.80
2023-01-05T03:23:16.642Z,0.80
2023-01-05T03:26:04.292Z,0.70
2023-01-05T03:29:08.682Z,0.70
2023-01-05T03:32:03.272Z,0.70
2023-01-05T03:34:55.631Z,0.80
2023-01-05T03:37:29.108Z,0.70
2023-01-05T03:40:00.256Z,0.70
2023-01-05T03:42:31.558Z,0.70
2023-01-05T03:44:58.877Z,0.70
2023-01-05T03:47:25.762Z,0.70
2023-01-05T03:49:54.114Z,0.70
2023-01-05T03:52:22.416Z,0.70
2023-01-05T03:54:49.323Z,0.70
2023-01-05T03:57:16.230Z,0.60
2023-01-05T03:59:46.295Z,0.70
2023-01-05T04:02:14.037Z,0.70
2023-01-05T04:04:41.025Z,0.70
2023-01-05T04:07:08.779Z,0.70
2023-01-05T04:09:36.392Z,0.70
2023-01-05T04:12:03.458Z,0.60
2023-01-05T04:14:32.543Z,0.60
2023-01-05T04:17:00.170Z,0.60
2023-01-05T04:19:27.125Z,0.50
2023-01-05T04:21:57.541Z,0.60
2023-01-05T04:24:25.855Z,0.50
2023-01-05T04:26:54.663Z,0.50
2023-01-05T04:29:21.577Z,0.50
2023-01-05T04:31:49.243Z,0.50
2023-01-05T04:34:17.614Z,0.40
2023-01-05T04:36:48.037Z,0.50
2023-01-05T04:39:17.398Z,0.50
2023-01-05T04:41:45.879Z,0.50
2023-01-05T04:44:13.464Z,0.50
2023-01-05T04:46:42.919Z,0.50
2023-01-05T04:49:11.512Z,0.40
2023-01-05T04:51:40.692Z,0.40
2023-01-05T04:54:08.348Z,0.50
2023-01-05T04:56:36.083Z,0.40
2023-01-05T04:59:06.731Z,0.40
2023-01-05T05:01:34.493Z,0.50
2023-01-05T05:04:02.261Z,0.40
2023-01-05T05:06:30.967Z,0.40
2023-01-05T05:08:58.636Z,0.40
2023-01-05T05:11:27.827Z,0.40
2023-01-05T05:13:55.522Z,0.40
2023-01-05T05:16:23.264Z,0.40
2023-01-05T05:18:51.764Z,0.40
2023-01-05T05:21:19.543Z,0.40
2023-01-05T05:23:47.275Z,0.40
2023-01-05T05:26:14.974Z,0.40
2023-01-05T05:28:41.878Z,0.40
2023-01-05T05:31:09.022Z,0.30
2023-01-05T05:33:41.364Z,0.30
2023-01-05T05:36:10.122Z,0.30
2023-01-05T05:38:38.439Z,0.30
2023-01-05T05:41:07.334Z,0.30
2023-01-05T05:43:35.833Z,0.30
2023-01-05T05:46:04.473Z,0.30
2023-01-05T05:48:32.885Z,0.30
2023-01-05T05:51:00.471Z,0.30
2023-01-05T05:53:29.992Z,0.30
2023-01-05T05:55:58.642Z,0.30
2023-01-05T05:58:25.743Z,0.30
2023-01-05T06:00:56.865Z,0.20
2023-01-05T06:03:25.355Z,0.20
2023-01-05T06:05:53.881Z,0.20
2023-01-05T06:08:22.188Z,0.20
2023-01-05T06:10:50.609Z,0.30
2023-01-05T06:13:21.472Z,0.30
2023-01-05T06:15:49.771Z,0.30
2023-01-05T06:18:17.498Z,0.30
2023-01-05T06:20:45.133Z,0.30
2023-01-05T06:23:12.844Z,0.30
2023-01-05T06:25:41.065Z,0.30
2023-01-05T06:28:08.656Z,0.40
2023-01-05T06:30:37.368Z,0.40
2023-01-05T06:33:04.995Z,0.40
2023-01-05T06:35:32.611Z,0.40
2023-01-05T06:38:00.194Z,0.40
2023-01-05T06:40:27.962Z,0.40
2023-01-05T06:42:55.747Z,0.40
2023-01-05T06:45:23.380Z,0.40
2023-01-05T06:47:51.095Z,0.40
2023-01-05T06:50:18.926Z,0.40
2023-01-05T06:52:48.423Z,0.40
2023-01-05T06:55:16.051Z,0.40
2023-01-05T06:57:43.917Z,0.40
2023-01-05T07:00:12.561Z,0.30
2023-01-05T07:02:40.229Z,0.30
2023-01-05T07:05:08.797Z,0.30
2023-01-05T07:07:36.407Z,0.30
2023-01-05T07:10:05.967Z,0.30
2023-01-05T07:12:33.613Z,0.30
2023-01-05T07:15:01.269Z,0.30
2023-01-05T07:17:29.684Z,0.30
2023-01-05T07:19:57.401Z,0.30
2023-01-05T07:22:24.350Z,0.30
2023-01-05T07:24:51.219Z,0.30
2023-01-05T07:27:18.816Z,0.30
2023-01-05T07:29:47.183Z,0.30
2023-01-05T07:32:17.062Z,0.20
2023-01-05T07:34:54.761Z,0.30
2023-01-05T07:37:25.817Z,0.30
2023-01-05T07:39:53.601Z,0.30
2023-01-05T07:42:21.303Z,0.20
2023-01-05T07:44:49.588Z,0.20
2023-01-05T07:47:18.921Z,0.20
2023-01-05T07:49:47.139Z,0.20
2023-01-05T07:52:15.615Z,0.20
2023-01-05T07:54:42.521Z,0.20
2023-01-05T07:57:10.146Z,0.20
2023-01-05T07:59:37.770Z,0.20
2023-01-05T08:02:05.513Z,0.20
2023-01-05T08:04:33.972Z,0.10
2023-01-05T08:07:11.194Z,0.20
2023-01-05T08:09:57.910Z,0.10
2023-01-05T08:12:28.609Z,0.10
2023-01-05T08:14:56.300Z,0.10
2023-01-05T08:17:24.160Z,0.10
2023-01-05T08:19:51.805Z,0.00
2023-01-05T08:22:20.858Z,0.10
2023-01-05T08:24:50.273Z,0.00
2023-01-05T08:27:19.437Z,0.00
2023-01-05T08:29:47.743Z,0.00
2023-01-05T08:32:17.847Z,0.00
2023-01-05T08:34:47.000Z,0.00
2023-01-05T08:37:17.520Z,0.00
2023-01-05T08:39:44.407Z,0.00
2023-01-05T08:42:12.034Z,0.00
2023-01-05T08:44:41.239Z,0.00
2023-01-05T08:47:09.614Z,0.00
2023-01-05T08:49:36.485Z,0.00
2023-01-05T08:52:04.340Z,-0.10
2023-01-05T08:54:32.023Z,0.00
2023-01-05T08:57:02.419Z,0.00
2023-01-05T08:59:30.010Z,-0.10
2023-01-05T09:01:58.428Z,-0.10
2023-01-05T09:04:27.640Z,0.00
2023-01-05T09:06:56.592Z,0.00
2023-01-05T09:09:25.838Z,0.00
2023-01-05T09:11:54.403Z,0.00
2023-01-05T09:14:22.741Z,0.00
2023-01-05T09:17:06.453Z,0.00
2023-01-05T09:19:37.199Z,0.00
2023-01-05T09:22:04.991Z,0.00
2023-01-05T09:24:32.750Z,0.00
2023-01-05T09:26:59.711Z,0.00
2023-01-05T09:29:27.473Z,0.10
2023-01-05T09:31:55.843Z,0.10
2023-01-05T09:34:24.331Z,0.10
2023-01-05T09:36:51.999Z,0.00
2023-01-05T09:39:19.934Z,0.10
2023-01-05T09:41:54.041Z,0.10
2023-01-05T09:44:28.186Z,0.10
2023-01-05T09:47:01.022Z,0.10
2023-01-05T09:49:31.295Z,0.10
2023-01-05T09:52:02.195Z,0.10
2023-01-05T09:54:33.037Z,0.20
2023-01-05T09:57:10.153Z,0.10
2023-01-05T09:59:42.865Z,0.10
2023-01-05T10:02:24.461Z,0.10
2023-01-05T10:04:53.341Z,0.10
2023-01-05T10:07:31.784Z,0.10
2023-01-05T10:10:04.733Z,0.10
2023-01-05T10:13:01.891Z,0.10
2023-01-05T10:15:38.618Z,0.10
2023-01-05T10:18:15.840Z,0.10
2023-01-05T10:21:05.489Z,0.10
2023-01-05T10:23:54.028Z,0.10
2023-01-05T10:26:58.106Z,0.10
2023-01-05T10:29:43.325Z,0.10
2023-01-05T10:32:22.711Z,0.10
2023-01-05T10:35:59.129Z,0.10
2023-01-05T10:38:23.095Z,0.10
2023-01-05T10:41:21.397Z,0.10
2023-01-05T10:44:00.584Z,0.10
2023-01-05T10:46:34.940Z,0.10
2023-01-05T10:49:08.019Z,0.00
2023-01-05T10:51:37.050Z,0.00
2023-01-05T10:54:05.700Z,0.00
2023-01-05T10:56:33.442Z,0.00
2023-01-05T10:59:12.429Z,0.10
2023-01-05T11:01:46.054Z,0.10
2023-01-05T11:04:33.905Z,0.00
2023-01-05T11:07:07.317Z,0.00
2023-01-05T11:09:40.933Z,0.00
2023-01-05T11:12:25.221Z,0.00
2023-01-05T11:14:59.022Z,0.00
2023-01-05T11:17:28.178Z,0.00
2023-01-05T11:19:57.830Z,0.00
2023-01-05T11:22:39.962Z,0.00
2023-01-05T11:25:26.428Z,-0.10
2023-01-05T11:28:16.391Z,0.00
2023-01-05T11:31:05.722Z,-0.10
2023-01-05T11:33:39.615Z,-0.10
2023-01-05T11:36:07.655Z,-0.20
2023-01-05T11:38:37.699Z,-0.10
2023-01-05T11:41:12.006Z,-0.10
2023-01-05T11:43:40.523Z,-0.10
2023-01-05T11:46:09.359Z,-0.10
2023-01-05T11:48:39.192Z,-0.10
2023-01-05T11:51:07.761Z,-0.10
2023-01-05T11:53:35.393Z,-0.20
2023-01-05T11:56:19.461Z,-0.20
2023-01-05T11:58:49.368Z,-0.20
2023-01-05T12:01:47.645Z,-0.20
2023-01-05T12:04:40.913Z,-0.20
2023-01-05T12:07:12.281Z,-0.20
2023-01-05T12:09:53.556Z,-0.30
2023-01-05T12:12:31.240Z,-0.20
2023-01-05T12:15:09.221Z,-0.30
2023-01-05T12:18:06.525Z,-0.30
2023-01-05T12:20:56.062Z,-0.30
2023-01-05T12:23:29.590Z,-0.30
2023-01-05T12:26:16.984Z,-0.30
2023-01-05T12:29:34.510Z,-0.30
2023-01-05T12:35:10.950Z,-0.30
2023-01-05T12:38:10.618Z,-0.30
2023-01-05T12:41:01.406Z,-0.30
2023-01-05T12:44:07.284Z,-0.30
2023-01-05T12:46:47.330Z,-0.30
2023-01-05T12:49:25.912Z,-0.30
2023-01-05T12:52:06.581Z,-0.30
2023-01-05T12:54:58.249Z,-0.30
2023-01-05T12:57:40.511Z,-0.40
2023-01-05T13:00:18.969Z,-0.30
2023-01-05T13:03:11.553Z,-0.30
2023-01-05T13:05:46.425Z,-0.30
2023-01-05T13:08:24.987Z,-0.30
2023-01-05T13:10:56.518Z,-0.30
2023-01-05T13:13:50.925Z,-0.30
2023-01-05T13:16:26.155Z,-0.40
2023-01-05T13:19:23.944Z,-0.40
2023-01-05T13:21:54.163Z,-0.40
2023-01-05T13:24:39.214Z,-0.40
2023-01-05T13:27:10.408Z,-0.40
2023-01-05T13:29:48.441Z,-0.40
2023-01-05T13:32:34.868Z,-0.40
2023-01-05T13:35:24.705Z,-0.40
2023-01-05T13:38:22.937Z,-0.40
2023-01-05T13:41:03.646Z,-0.40
2023-01-05T13:43:52.667Z,-0.40
2023-01-05T13:46:55.168Z,-0.40
2023-01-05T13:49:42.608Z,-0.40
2023-01-05T13:52:21.993Z,-0.40
2023-01-05T13:55:01.399Z,-0.40
2023-01-05T13:57:39.024Z,-0.40
2023-01-05T14:00:21.398Z,-0.40
2023-01-05T14:03:13.187Z,-0.40
2023-01-05T14:05:51.734Z,-0.40
2023-01-05T14:08:36.081Z,-0.40
2023-01-05T14:11:18.416Z,-0.50
2023-01-05T14:13:59.625Z,-0.40
2023-01-05T14:16:35.420Z,-0.50
2023-01-05T14:19:15.010Z,-0.50
2023-01-05T14:21:51.561Z,-0.50
2023-01-05T14:27:19.603Z,-0.60
2023-01-05T14:29:55.004Z,-0.60
2023-01-05T14:32:36.634Z,-0.60
2023-01-05T14:35:28.948Z,-0.60
2023-01-05T14:38:14.058Z,-0.60
2023-01-05T14:40:45.859Z,-0.60
2023-01-05T14:43:39.975Z,-0.60
2023-01-05T14:46:14.751Z,-0.60
2023-01-05T14:48:50.091Z,-0.60
2023-01-05T14:51:24.086Z,-0.60
2023-01-05T14:53:53.728Z,-0.60
2023-01-05T14:56:24.652Z,-0.60
2023-01-05T14:58:57.482Z,-0.70
2023-01-05T15:01:46.006Z,-0.70
2023-01-05T15:04:17.317Z,-0.70
2023-01-05T15:07:06.091Z,-0.70
2023-01-05T15:09:57.110Z,-0.70
2023-01-05T15:13:05.755Z,-0.70
2023-01-05T15:16:04.165Z,-0.70
2023-01-05T15:18:59.431Z,-0.70
2023-01-05T15:22:36.505Z,-0.70
2023-01-05T15:25:15.397Z,-0.70
2023-01-05T15:27:59.290Z,-0.70
2023-01-05T15:30:56.872Z,-0.70
2023-01-05T15:33:30.257Z,-0.70
2023-01-05T15:36:03.524Z,-0.70
2023-01-05T15:38:31.598Z,-0.70
2023-01-05T15:41:07.184Z,-0.70
2023-01-05T15:43:40.204Z,-0.70
2023-01-05T15:46:11.567Z,-0.70
2023-01-05T15:48:45.688Z,-0.70
2023-01-05T15:51:27.458Z,-0.70
2023-01-05T15:54:01.197Z,-0.80
2023-01-05T15:56:35.640Z,-0.70
2023-01-05T15:59:31.063Z,-0.80
2023-01-05T16:01:59.740Z,-0.80
2023-01-05T16:04:28.446Z,-0.80
2023-01-05T16:07:03.575Z,-0.80
2023-01-05T16:09:34.870Z,-0.80
2023-01-05T16:12:09.423Z,-0.80
2023-01-05T16:14:46.552Z,-0.80
2023-01-05T16:17:20.105Z,-0.80
2023-01-05T16:19:58.567Z,-0.80
2023-01-05T16:22:40.785Z,-0.80
2023-01-05T16:25:23.692Z,-0.90
2023-01-05T16:27:59.113Z,-0.90
2023-01-05T16:30:39.161Z,-0.90
2023-01-05T16:33:12.617Z,-0.90
2023-01-05T16:36:09.098Z,-0.90
2023-01-05T16:38:36.800Z,-0.90
2023-01-05T16:41:10.111Z,-0.90
2023-01-05T16:43:42.685Z,-0.90
2023-01-05T16:46:19.956Z,-0.90
2023-01-05T16:48:52.846Z,-1.00
2023-01-05T16:51:35.892Z,-0.90
2023-01-05T16:54:07.707Z,-1.00
2023-01-05T16:56:36.681Z,-1.00
2023-01-05T16:59:31.851Z,-1.00
2023-01-05T17:01:59.726Z,-1.00
2023-01-05T17:04:27.588Z,-1.00
2023-01-05T17:06:54.638Z,-1.10
2023-01-05T17:09:30.542Z,-1.00
2023-01-05T17:11:59.081Z,-1.00
2023-01-05T17:14:28.051Z,-1.00
2023-01-05T17:16:56.429Z,-1.10
2023-01-05T17:19:24.069Z,-1.10
2023-01-05T17:22:00.893Z,-1.20
2023-01-05T17:24:29.492Z,-1.20
2023-01-05T17:26:57.288Z,-1.20
2023-01-05T17:29:29.899Z,-1.30
2023-01-05T17:31:59.278Z,-1.30
2023-01-05T17:34:27.734Z,-1.30
2023-01-05T17:36:58.910Z,-1.30
2023-01-05T17:39:27.439Z,-1.40
2023-01-05T17:42:15.723Z,-1.40
2023-01-05T17:44:43.354Z,-1.50
2023-01-05T17:47:11.665Z,-1.40
2023-01-05T17:49:43.767Z,-1.50
2023-01-05T17:52:13.975Z,-1.50
2023-01-05T17:54:41.884Z,-1.50
2023-01-05T17:57:12.251Z,-1.50
2023-01-05T17:59:39.947Z,-1.50
2023-01-05T18:02:07.584Z,-1.50
2023-01-05T18:04:36.066Z,-1.50
2023-01-05T18:07:03.796Z,-1.50
2023-01-05T18:09:35.419Z,-1.50
2023-01-05T18:12:03.373Z,-1.50
2023-01-05T18:14:31.714Z,-1.50
2023-01-05T18:17:01.222Z,-1.60
2023-01-05T18:19:31.579Z,-1.60
2023-01-05T18:22:01.275Z,-1.60
2023-01-05T18:24:29.547Z,-1.70
2023-01-05T18:26:58.550Z,-1.70
2023-01-05T18:29:26.631Z,-1.80
2023-01-05T18:31:54.951Z,-1.80
2023-01-05T18:34:22.610Z,-1.90
2023-01-05T18:37:01.526Z,-1.90
2023-01-05T18:39:35.334Z,-1.80
2023-01-05T18:42:04.095Z,-1.90
2023-01-05T18:44:34.513Z,-1.90
2023-01-05T18:47:02.823Z,-1.90
2023-01-05T18:49:29.755Z,-1.90
2023-01-05T18:51:57.406Z,-1.90
2023-01-05T18:54:25.038Z,-1.90
2023-01-05T18:56:52.643Z,-1.90
2023-01-05T18:59:21.211Z,-2.00
2023-01-05T19:01:52.183Z,-2.00
2023-01-05T19:04:19.275Z,-2.00
2023-01-05T19:06:47.059Z,-2.00
2023-01-05T19:09:16.029Z,-1.90
2023-01-05T19:11:47.339Z,-1.90
2023-01-05T19:14:16.168Z,-1.90
2023-01-05T19:16:44.712Z,-1.90
2023-01-05T19:19:15.075Z,-1.90
2023-01-05T19:21:45.139Z,-1.80
2023-01-05T19:24:17.329Z,-1.80
2023-01-05T19:26:47.913Z,-1.70
2023-01-05T19:29:17.430Z,-1.70
2023-01-05T19:31:46.972Z,-1.60
2023-01-05T19:34:19.395Z,-1.60
2023-01-05T19:36:48.336Z,-1.60
2023-01-05T19:39:19.654Z,-1.60
2023-01-05T19:41:51.271Z,-1.70
2023-01-05T19:44:22.617Z,-1.60
2023-01-05T19:46:54.766Z,-1.60
2023-01-05T19:49:25.796Z,-1.70
2023-01-05T19:51:55.799Z,-1.80
2023-01-05T19:54:26.231Z,-1.80
2023-01-05T19:56:55.059Z,-1.80
2023-01-05T19:59:26.511Z,-1.90
2023-01-05T20:01:56.225Z,-1.90
2023-01-05T20:04:26.284Z,-1.90
2023-01-05T20:06:54.704Z,-2.00
2023-01-05T20:09:24.104Z,-1.90
2023-01-05T20:11:59.557Z,-2.00
2023-01-05T20:14:31.909Z,-2.00
2023-01-05T20:17:06.435Z,-2.10
2023-01-05T20:19:38.030Z,-2.10
2023-01-05T20:22:07.740Z,-2.00
2023-01-05T20:24:37.309Z,-2.00
2023-01-05T20:27:09.091Z,-2.10
2023-01-05T20:29:40.572Z,-2.10
2023-01-05T20:32:20.681Z,-2.10
2023-01-05T20:34:55.224Z,-2.10
2023-01-05T20:37:23.901Z,-2.10
2023-01-05T20:39:56.650Z,-2.10
2023-01-05T20:42:26.470Z,-2.10
2023-01-05T20:44:54.176Z,-2.10
2023-01-05T20:47:24.476Z,-2.00
2023-01-05T20:49:53.345Z,-2.00
2023-01-05T20:52:21.826Z,-2.10
2023-01-05T20:54:55.298Z,-2.10
2023-01-05T20:57:23.804Z,-2.10
2023-01-05T20:59:52.175Z,-2.00
2023-01-05T21:02:24.562Z,-2.10
2023-01-05T21:04:55.628Z,-2.10
2023-01-05T21:07:24.057Z,-2.10
2023-01-05T21:09:52.593Z,-2.10
2023-01-05T21:12:21.182Z,-2.10
2023-01-05T21:14:49.644Z,-2.10
2023-01-05T21:17:19.215Z,-2.10
2023-01-05T21:19:46.852Z,-2.20
2023-01-05T21:22:14.523Z,-2.20
2023-01-05T21:24:43.002Z,-2.20
2023-01-05T21:27:11.480Z,-2.30
2023-01-05T21:29:42.672Z,-2.20
2023-01-05T21:32:11.667Z,-2.30
2023-01-05T21:34:40.691Z,-2.40
2023-01-05T21:37:09.326Z,-2.40
2023-01-05T21:39:36.919Z,-2.40
2023-01-05T21:42:23.259Z,-2.40
2023-01-05T21:44:50.922Z,-2.50
2023-01-05T21:47:20.075Z,-2.40
2023-01-05T21:49:49.218Z,-2.50
2023-01-05T21:52:38.408Z,-2.50
2023-01-05T21:55:28.560Z,-2.50
2023-01-05T21:57:57.155Z,-2.60
2023-01-05T22:00:25.682Z,-2.60
2023-01-05T22:02:54.074Z,-2.70
2023-01-05T22:05:24.886Z,-2.70
2023-01-05T22:07:53.166Z,-2.70
2023-01-05T22:10:20.818Z,-2.70
2023-01-05T22:12:49.194Z,-2.60
2023-01-05T22:15:18.356Z,-2.70
2023-01-05T22:17:47.210Z,-2.70
2023-01-05T22:20:16.009Z,-2.70
2023-01-05T22:22:43.581Z,-2.70
2023-01-05T22:25:11.296Z,-2.70
2023-01-05T22:27:38.872Z,-2.60
2023-01-05T22:30:07.475Z,-2.70
2023-01-05T22:32:36.798Z,-2.70
2023-01-05T22:35:05.311Z,-2.80
2023-01-05T22:37:53.194Z,-2.80
2023-01-05T22:40:30.980Z,-2.80
2023-01-05T22:43:18.359Z,-2.80
2023-01-05T22:45:45.334Z,-2.80
2023-01-05T22:48:12.992Z,-2.80
2023-01-05T22:50:41.358Z,-2.80
2023-01-05T22:53:09.801Z,-2.80
2023-01-05T22:55:40.953Z,-2.80
2023-01-05T22:58:08.756Z,-2.70
2023-01-05T23:00:36.818Z,-2.80
2023-01-05T23:03:09.870Z,-2.80
2023-01-05T23:05:40.866Z,-2.80
2023-01-05T23:08:08.581Z,-2.80
2023-01-05T23:10:35.475Z,-2.80
2023-01-05T23:13:03.113Z,-2.90
2023-01-05T23:15:30.791Z,-2.90
2023-01-05T23:17:58.444Z,-2.90
2023-01-05T23:20:26.226Z,-2.80
2023-01-05T23:23:12.595Z,-2.80
2023-01-05T23:25:40.198Z,-2.80
2023-01-05T23:28:07.928Z,-2.90
2023-01-05T23:30:35.518Z,-2.90
2023-01-05T23:33:03.458Z,-2.90
2023-01-05T23:35:35.162Z,-2.90
2023-01-05T23:38:02.924Z,-2.90
2023-01-05T23:40:29.908Z,-2.90
2023-01-05T23:42:57.552Z,-2.90
2023-01-05T23:45:25.394Z,-2.80
2023-01-05T23:47:53.306Z,-2.80
2023-01-05T23:50:20.935Z,-2.80
2023-01-05T23:52:48.967Z,-2.70
2023-01-05T23:55:17.386Z,-2.70
2023-01-05T23:57:46.224Z,-2.70
